Time;durP1;ratioP1;P1;durP2;ratioP2;P2;SDS_P1;SDS_P2;PMS_P1;PMS_P2;Temp;Humidity;BMP_temperature;BMP_pressure;BME280_temperature;BME280_humidity;BME280_pressure;Samples;Min_cycle;Max_cycle;Signal;HPM_P1;HPM_P2
2022/06/18 00:00:56;;;;;;;4.50;2.70;;;;;;;23.17;53.32;101600.75;5189498;28;20033;-76
2022/06/18 00:03:27;;;;;;;6.82;2.80;;;;;;;23.15;53.46;101594.63;5189724;28;20035;-76
2022/06/18 00:05:59;;;;;;;8.20;3.03;;;;;;;23.05;54.04;101590.72;5189490;28;20030;-72
2022/06/18 00:08:30;;;;;;;15.83;3.83;;;;;;;23.08;54.38;101595.91;5189566;28;20117;-73
2022/06/18 00:13:52;;;;;;;7.40;3.13;;;;;;;23.19;54.09;101596.19;5189217;28;20442;-72
2022/06/18 00:16:23;;;;;;;4.20;2.83;;;;;;;23.12;54.13;101592.16;5189548;28;20031;-73
2022/06/18 00:18:55;;;;;;;5.40;2.73;;;;;;;22.96;54.62;101586.75;5189601;28;20119;-76
2022/06/18 00:21:27;;;;;;;7.57;2.77;;;;;;;23.03;54.68;101585.47;5189144;28;20031;-75
2022/06/18 00:23:59;;;;;;;5.35;2.28;;;;;;;22.86;55.15;101585.50;5255157;28;20041;-75
2022/06/18 00:26:30;;;;;;;6.15;2.67;;;;;;;22.97;54.86;101587.59;5256047;28;20038;-77
2022/06/18 00:29:05;;;;;;;3.33;2.63;;;;;;;22.72;55.31;101579.09;5188967;28;20041;-76
2022/06/18 00:31:36;;;;;;;8.05;2.80;;;;;;;22.71;55.71;101584.50;5189079;28;20034;-75
2022/06/18 00:34:08;;;;;;;8.03;2.90;;;;;;;22.84;55.57;101574.94;5188812;28;20095;-74
2022/06/18 00:36:41;;;;;;;;;;;;;;;22.95;52.97;101579.69;5189365;28;20083;-75
2022/06/18 00:39:15;;;;;;;8.98;3.40;;;;;;;22.75;55.97;101578.09;5189456;28;20016;-75
2022/06/18 00:41:51;;;;;;;6.88;2.80;;;;;;;22.66;56.07;101582.06;5192832;28;20030;-73
2022/06/18 00:44:35;;;;;;;4.88;2.83;;;;;;;22.77;55.56;101579.72;5192413;28;20079;-77
2022/06/18 00:47:48;;;;;;;4.72;2.70;;;;;;;22.76;55.31;101578.00;5192993;28;20027;-74
2022/06/18 00:50:29;;;;;;;5.18;2.50;;;;;;;22.70;56.14;101582.75;5234275;28;20037;-74
2022/06/18 00:53:25;;;;;;;5.75;2.80;;;;;;;22.44;56.52;101582.28;5234103;28;20308;-74
2022/06/18 00:56:19;;;;;;;8.40;3.00;;;;;;;22.39;56.77;101579.00;5232395;28;20113;-73
2022/06/18 00:59:04;;;;;;;5.10;2.75;;;;;;;22.25;57.02;101576.13;5234003;28;20036;-74
2022/06/18 01:01:39;;;;;;;7.40;2.78;;;;;;;22.40;57.66;101580.72;5234304;28;20038;-74
2022/06/18 01:04:30;;;;;;;9.50;3.30;;;;;;;22.30;57.30;101582.09;5233679;28;20044;-73
2022/06/18 01:07:13;;;;;;;7.53;3.33;;;;;;;22.42;58.00;101583.31;5232338;28;20252;-75
2022/06/18 01:09:49;;;;;;;5.38;2.70;;;;;;;22.10;58.62;101575.09;5233792;28;20025;-76
2022/06/18 01:12:21;;;;;;;11.07;2.80;;;;;;;22.35;58.69;101569.47;5233161;28;20171;-73
2022/06/18 01:15:06;;;;;;;15.13;3.45;;;;;;;22.06;58.62;101566.44;5233628;28;20044;-74
2022/06/18 01:17:40;;;;;;;4.13;2.80;;;;;;;22.29;59.06;101565.31;5232161;28;20026;-74
2022/06/18 01:20:11;;;;;;;9.20;3.08;;;;;;;22.03;59.08;101554.16;5233975;28;20108;-74
2022/06/18 01:22:58;;;;;;;11.75;4.38;;;;;;;22.00;59.13;101564.06;5233542;28;20037;-74
2022/06/18 01:25:30;;;;;;;11.15;4.28;;;;;;;21.88;59.68;101559.34;5225621;28;20103;-75
2022/06/18 01:28:02;;;;;;;6.43;3.20;;;;;;;21.90;59.95;101554.84;5171933;28;20035;-77
2022/06/18 01:30:38;;;;;;;6.28;2.97;;;;;;;21.77;60.33;101560.72;5171558;28;20495;-74
2022/06/18 01:33:11;;;;;;;5.50;3.03;;;;;;;22.01;60.04;101560.50;5171635;28;20031;-76
2022/06/18 01:35:46;;;;;;;9.50;3.45;;;;;;;21.86;60.90;101564.72;5177602;28;20038;-76
2022/06/18 01:38:18;;;;;;;9.40;3.38;;;;;;;21.77;60.47;101571.34;5192004;28;20098;-75
2022/06/18 01:43:56;;;;;;;4.95;3.22;;;;;;;21.92;60.72;101568.88;5191675;28;20046;-73
2022/06/18 01:46:29;;;;;;;9.63;3.45;;;;;;;21.63;61.09;101563.16;5191130;28;20476;-75
2022/06/18 01:49:05;;;;;;;5.07;3.38;;;;;;;21.49;61.13;101562.03;5191225;28;20034;-73
2022/06/18 01:51:39;;;;;;;6.70;3.05;;;;;;;21.47;61.43;101558.53;5170093;28;20164;-76
2022/06/18 01:54:17;;;;;;;6.25;3.33;;;;;;;21.43;61.84;101561.38;5171462;28;20089;-73
2022/06/18 01:56:56;;;;;;;6.38;3.25;;;;;;;21.66;61.33;101557.72;5171103;28;20019;-75
2022/06/18 01:59:32;;;;;;;6.95;3.92;;;;;;;21.41;61.73;101558.84;5171566;28;20050;-75
2022/06/18 02:02:04;;;;;;;6.95;3.30;;;;;;;21.42;61.84;101560.53;5190253;28;20040;-77
2022/06/18 02:04:35;;;;;;;7.18;3.63;;;;;;;21.36;62.33;101552.00;5190981;28;20042;-77
2022/06/18 02:07:07;;;;;;;7.83;3.47;;;;;;;21.63;62.62;101558.72;5191123;28;20033;-76
2022/06/18 02:09:52;;;;;;;6.35;3.50;;;;;;;21.36;62.02;101557.31;5191823;28;20035;-74
2022/06/18 02:12:28;;;;;;;5.90;3.33;;;;;;;21.35;62.67;101548.50;5191029;28;20483;-77
2022/06/18 02:15:11;;;;;;;8.80;3.53;;;;;;;21.37;62.20;101546.63;5191719;28;20066;-75
2022/06/18 02:17:42;;;;;;;;;;;;;;;21.52;59.75;101542.44;5191806;28;20092;-75
2022/06/18 02:20:27;;;;;;;5.50;3.33;;;;;;;21.23;62.53;101546.41;5191025;28;20641;-76
2022/06/18 02:22:58;;;;;;;5.82;3.38;;;;;;;21.24;62.50;101548.13;5190612;28;20067;-73
2022/06/18 02:25:31;;;;;;;5.83;3.67;;;;;;;21.12;63.02;101550.41;5190899;28;20492;-74
2022/06/18 02:28:12;;;;;;;5.38;3.63;;;;;;;21.09;63.23;101555.84;5190592;28;20041;-75
2022/06/18 02:30:43;;;;;;;8.32;3.45;;;;;;;21.10;63.06;101544.31;5190837;28;20075;-75
2022/06/18 02:33:42;;;;;;;5.03;3.67;;;;;;;21.13;62.85;101548.63;5191144;28;20034;-74
2022/06/18 02:36:21;;;;;;;8.15;3.85;;;;;;;21.07;63.49;101543.59;5190868;28;20272;-76
2022/06/18 02:38:57;;;;;;;7.32;3.78;;;;;;;20.99;64.31;101545.72;5191023;28;20065;-73
2022/06/18 02:41:29;;;;;;;5.35;3.90;;;;;;;21.06;63.66;101540.09;5190333;28;20026;-74
2022/06/18 02:44:00;;;;;;;8.53;3.77;;;;;;;21.08;63.86;101547.97;5258064;28;20650;-76
2022/06/18 02:46:32;;;;;;;7.53;4.40;;;;;;;20.89;64.00;101540.81;5190818;28;20118;-77
2022/06/18 02:49:06;;;;;;;9.38;4.22;;;;;;;20.99;63.88;101551.88;5190871;28;20137;-77
2022/06/18 02:51:38;;;;;;;6.82;4.13;;;;;;;20.77;64.58;101544.88;5190297;28;20038;-78
2022/06/18 02:54:10;;;;;;;8.73;4.73;;;;;;;20.74;64.78;101542.34;5191182;28;20545;-73
2022/06/18 02:56:43;;;;;;;10.63;4.70;;;;;;;20.79;64.66;101536.00;5190826;28;20034;-76
2022/06/18 02:59:14;;;;;;;8.45;4.82;;;;;;;20.76;64.59;101545.78;5190651;28;20560;-75
2022/06/18 03:01:46;;;;;;;8.97;4.73;;;;;;;20.72;64.43;101538.03;5189935;28;20040;-74
2022/06/18 03:04:17;;;;;;;14.23;4.50;;;;;;;20.75;64.70;101538.78;5191360;28;20038;-73
2022/06/18 03:06:48;;;;;;;8.00;4.27;;;;;;;20.58;65.13;101541.28;5190450;28;20065;-73
2022/06/18 03:09:20;;;;;;;7.00;4.57;;;;;;;20.57;65.32;101540.38;5190385;28;20041;-75
2022/06/18 03:12:06;;;;;;;8.20;4.60;;;;;;;20.67;65.48;101540.91;5189316;28;20072;-74
2022/06/18 03:14:37;;;;;;;7.40;4.00;;;;;;;20.72;65.03;101551.28;5189838;28;20042;-75
2022/06/18 03:17:08;;;;;;;8.67;4.53;;;;;;;20.71;65.30;101547.78;5189673;28;20472;-74
2022/06/18 03:19:46;;;;;;;7.83;4.87;;;;;;;20.57;65.43;101547.47;5190309;28;20038;-75
2022/06/18 03:22:20;;;;;;;10.95;4.40;;;;;;;20.65;65.70;101550.69;5189578;28;20023;-71
2022/06/18 03:24:51;;;;;;;11.75;4.53;;;;;;;20.58;65.20;101551.88;5189611;28;20092;-75
2022/06/18 03:27:23;;;;;;;9.27;4.30;;;;;;;20.53;65.35;101543.25;5190324;28;20022;-73
2022/06/18 03:29:54;;;;;;;10.17;4.30;;;;;;;20.57;65.71;101544.84;5189844;28;20117;-74
2022/06/18 03:32:25;;;;;;;5.73;3.90;;;;;;;20.64;65.69;101548.09;5190192;28;20037;-73
2022/06/18 03:34:57;;;;;;;6.97;4.87;;;;;;;20.57;65.78;101550.13;5191412;28;20138;-74
2022/06/18 03:37:28;;;;;;;6.57;4.53;;;;;;;20.64;65.71;101556.94;5195301;28;20121;-77
2022/06/18 03:40:00;;;;;;;8.27;4.60;;;;;;;20.54;65.61;101553.78;5190596;28;20096;-74
2022/06/18 03:42:31;;;;;;;8.83;4.87;;;;;;;20.62;66.21;101553.44;5189905;28;20092;-78
2022/06/18 03:45:03;;;;;;;7.63;4.87;;;;;;;20.48;66.16;101548.75;5190162;28;20041;-77
2022/06/18 03:47:35;;;;;;;8.90;5.15;;;;;;;20.61;66.60;101558.81;5190305;28;20117;-78
2022/06/18 03:50:14;;;;;;;10.30;5.00;;;;;;;20.74;66.79;101560.06;5190119;28;20035;-78
2022/06/18 03:52:45;;;;;;;10.73;5.05;;;;;;;20.74;66.59;101552.97;5189863;28;20376;-75
2022/06/18 03:55:17;;;;;;;8.63;5.13;;;;;;;20.66;65.90;101552.44;5189682;28;20118;-76
2022/06/18 03:57:48;;;;;;;9.23;4.85;;;;;;;20.59;65.93;101548.28;5189691;28;20041;-78
2022/06/18 04:00:23;;;;;;;8.43;4.93;;;;;;;20.63;66.00;101544.56;5189724;28;20037;-73
2022/06/18 04:02:55;;;;;;;10.18;5.43;;;;;;;20.57;66.38;101550.97;5189759;28;20250;-76
2022/06/18 04:05:27;;;;;;;15.07;6.17;;;;;;;20.51;66.23;101551.28;5189595;28;20045;-76
2022/06/18 04:07:58;;;;;;;9.40;5.20;;;;;;;20.50;66.23;101546.03;5189263;28;20041;-75
2022/06/18 04:10:29;;;;;;;12.23;5.30;;;;;;;20.56;67.41;101538.69;5189894;28;20031;-76
2022/06/18 04:13:01;;;;;;;11.73;5.57;;;;;;;20.50;66.35;101540.75;5188857;28;20080;-73
2022/06/18 04:15:32;;;;;;;9.93;5.20;;;;;;;20.51;66.39;101530.09;5191800;28;20067;-76
2022/06/18 04:18:04;;;;;;;7.40;5.17;;;;;;;20.74;67.56;101538.84;5193328;28;20053;-78
2022/06/18 04:20:37;;;;;;;9.20;5.90;;;;;;;20.66;65.98;101531.25;5193059;28;20065;-77
2022/06/18 04:23:10;;;;;;;8.35;4.95;;;;;;;20.69;67.05;101531.09;5192612;28;20022;-77
2022/06/18 04:25:43;;;;;;;15.05;5.43;;;;;;;20.73;67.30;101537.97;5193383;28;20144;-78
2022/06/18 04:28:16;;;;;;;11.38;5.75;;;;;;;20.55;66.99;101538.75;5193393;28;20080;-77
2022/06/18 04:30:48;;;;;;;7.55;5.47;;;;;;;20.67;66.59;101537.38;5193301;28;20035;-77
2022/06/18 04:33:20;;;;;;;9.40;5.80;;;;;;;20.87;66.61;101544.47;5192682;28;20030;-77
2022/06/18 04:35:52;;;;;;;7.78;5.75;;;;;;;20.65;66.33;101542.75;5260016;28;20045;-76
2022/06/18 04:38:25;;;;;;;13.45;6.15;;;;;;;20.74;67.49;101544.16;5192585;28;20035;-73
2022/06/18 04:40:57;;;;;;;13.10;6.32;;;;;;;20.66;66.27;101544.47;5192954;28;20030;-77
2022/06/18 04:43:28;;;;;;;11.10;5.67;;;;;;;20.69;66.35;101536.41;5192669;28;20059;-78
2022/06/18 04:45:59;;;;;;;15.57;6.10;;;;;;;20.76;66.77;101535.19;5192850;28;20075;-76
2022/06/18 04:48:31;;;;;;;14.17;5.80;;;;;;;20.84;67.42;101544.63;5192663;28;20079;-77
2022/06/18 04:51:02;;;;;;;11.83;5.67;;;;;;;20.94;67.19;101537.97;5192713;28;20113;-77
2022/06/18 04:53:34;;;;;;;12.47;5.80;;;;;;;20.89;66.49;101539.97;5192617;28;20030;-77
2022/06/18 04:56:06;;;;;;;12.17;6.97;;;;;;;20.91;65.99;101538.97;5192907;28;20026;-77
2022/06/18 04:58:38;;;;;;;10.80;6.70;;;;;;;20.99;66.54;101545.72;5192813;28;20041;-77
2022/06/18 05:01:30;;;;;;;11.85;6.32;;;;;;;20.98;66.69;101547.53;5192879;28;20026;-74
2022/06/18 05:04:01;;;;;;;10.63;6.57;;;;;;;20.92;66.08;101543.34;5193589;28;20034;-76
2022/06/18 05:06:33;;;;;;;9.13;6.90;;;;;;;20.94;65.77;101543.28;5193288;28;20464;-76
2022/06/18 05:09:04;;;;;;;10.02;6.20;;;;;;;20.91;66.43;101541.63;5192538;28;20073;-72
2022/06/18 05:11:35;;;;;;;8.93;7.00;;;;;;;21.01;66.43;101535.91;5192416;28;20060;-74
2022/06/18 05:14:07;;;;;;;11.97;6.90;;;;;;;20.99;66.01;101535.13;5192372;28;20061;-76
2022/06/18 05:16:38;;;;;;;11.10;7.03;;;;;;;21.05;65.41;101541.00;5191752;28;20061;-76
2022/06/18 05:19:23;;;;;;;10.63;6.57;;;;;;;21.12;65.73;101545.13;5192568;28;20046;-77
2022/06/18 05:21:55;;;;;;;9.88;6.63;;;;;;;21.33;65.37;101553.00;5191560;28;20115;-76
2022/06/18 05:24:26;;;;;;;10.03;7.50;;;;;;;21.30;64.68;101555.81;5191648;28;20149;-73
2022/06/18 05:26:59;;;;;;;13.67;6.80;;;;;;;21.39;65.14;101558.03;5191753;28;20113;-73
2022/06/18 05:29:31;;;;;;;10.43;6.45;;;;;;;21.41;65.62;101550.88;5191818;28;20050;-74
2022/06/18 05:32:03;;;;;;;13.48;6.22;;;;;;;21.53;64.34;101556.59;5192039;28;20083;-75
2022/06/18 05:34:35;;;;;;;12.32;6.60;;;;;;;21.55;63.74;101557.38;5192158;28;20117;-74
2022/06/18 05:37:14;;;;;;;10.70;7.07;;;;;;;21.58;63.10;101555.41;5191556;28;20042;-76
2022/06/18 05:39:46;;;;;;;15.48;7.47;;;;;;;21.68;64.31;101572.63;5172010;28;20565;-74
2022/06/18 05:42:18;;;;;;;10.20;7.07;;;;;;;21.66;63.50;101573.63;5172811;28;20113;-75
2022/06/18 05:44:49;;;;;;;15.07;6.40;;;;;;;21.75;63.69;101567.03;5172041;28;20076;-74
2022/06/18 05:47:24;;;;;;;14.60;6.95;;;;;;;21.78;63.07;101562.47;5238584;28;20653;-77
2022/06/18 05:49:56;;;;;;;14.02;8.02;;;;;;;21.79;63.45;101564.16;5191080;28;20034;-74
2022/06/18 05:52:29;;;;;;;11.70;7.53;;;;;;;21.94;63.09;101570.50;5191542;28;20026;-80
2022/06/18 05:55:02;;;;;;;12.10;6.60;;;;;;;21.88;62.51;101570.84;5189962;28;20103;-79
2022/06/18 05:57:33;;;;;;;14.13;7.82;;;;;;;21.88;62.42;101567.31;5190903;28;20034;-75
2022/06/18 06:00:06;;;;;;;16.13;8.07;;;;;;;22.07;64.46;101569.94;5190451;28;20037;-77
2022/06/18 06:02:38;;;;;;;12.88;7.25;;;;;;;22.09;61.97;101560.97;5190040;28;20034;-74
2022/06/18 06:05:09;;;;;;;11.23;7.27;;;;;;;22.18;62.18;101559.66;5191627;28;20045;-77
2022/06/18 06:07:44;;;;;;;14.43;6.73;;;;;;;22.26;62.52;101559.28;5191055;28;20030;-74
2022/06/18 06:13:14;;;;;;;10.10;6.13;;;;;;;22.36;60.64;101564.09;5190767;28;20384;-76
2022/06/18 06:15:46;;;;;;;13.02;6.32;;;;;;;22.43;60.84;101547.81;5262783;28;20148;-73
2022/06/18 06:18:20;;;;;;;15.07;5.73;;;;;;;22.56;60.48;101549.78;5196432;28;20035;-75
2022/06/18 06:20:53;;;;;;;13.43;5.97;;;;;;;22.57;58.45;101543.53;5194778;28;20082;-74
2022/06/18 06:23:25;;;;;;;13.30;6.05;;;;;;;22.62;58.08;101548.63;5257496;28;20041;-74
2022/06/18 06:25:57;;;;;;;12.77;7.07;;;;;;;22.75;59.17;101547.03;5190665;28;20472;-75
2022/06/18 06:28:29;;;;;;;17.50;5.82;;;;;;;22.82;58.65;101549.38;5191087;28;20027;-77
2022/06/18 06:31:01;;;;;;;13.23;6.22;;;;;;;22.86;57.47;101549.16;5191073;28;20062;-77
2022/06/18 06:33:32;;;;;;;14.87;6.33;;;;;;;22.87;56.96;101553.50;5191481;28;20579;-76
2022/06/18 06:36:05;;;;;;;13.87;6.40;;;;;;;22.98;57.27;101550.28;5191443;28;20105;-77
2022/06/18 06:38:37;;;;;;;14.80;6.40;;;;;;;23.05;56.22;101549.00;5190120;28;20104;-74
2022/06/18 06:41:16;;;;;;;15.38;6.30;;;;;;;23.14;56.48;101560.16;5190506;28;20053;-74
2022/06/18 06:43:48;;;;;;;12.00;6.03;;;;;;;23.18;55.93;101553.72;5190648;28;20022;-73
2022/06/18 06:46:19;;;;;;;14.35;6.43;;;;;;;23.24;55.58;101556.06;5190987;28;20034;-77
2022/06/18 06:48:51;;;;;;;16.47;6.57;;;;;;;23.29;55.41;101546.88;5190884;28;20065;-74
2022/06/18 06:51:28;;;;;;;13.57;6.17;;;;;;;23.34;55.17;101557.25;5190641;28;20030;-73
2022/06/18 06:54:00;;;;;;;13.95;5.75;;;;;;;23.40;55.44;101556.09;5190124;28;20034;-75
2022/06/18 06:59:21;;;;;;;15.35;5.88;;;;;;;23.54;55.12;101552.66;5190446;28;20046;-77
2022/06/18 07:01:53;;;;;;;14.93;6.07;;;;;;;23.60;55.56;101550.53;5190811;28;20435;-72
2022/06/18 07:04:24;;;;;;;16.63;6.55;;;;;;;23.66;55.22;101552.81;5190757;28;20129;-74
2022/06/18 07:06:57;;;;;;;12.87;6.30;;;;;;;23.79;54.93;101549.47;5190613;28;20476;-76
2022/06/18 07:09:29;;;;;;;14.57;6.97;;;;;;;23.77;54.19;101554.03;5190221;28;20026;-76
2022/06/18 07:12:00;;;;;;;12.60;6.70;;;;;;;23.87;54.68;101563.25;5190251;28;20058;-74
2022/06/18 07:14:31;;;;;;;10.67;5.40;;;;;;;23.96;54.86;101553.91;5189992;28;20380;-77
2022/06/18 07:17:04;;;;;;;10.30;6.40;;;;;;;24.16;55.96;101558.06;5190282;28;20079;-74
2022/06/18 07:19:35;;;;;;;;;;;;;;;24.45;53.98;101550.19;5191069;28;20544;-77
2022/06/18 07:22:10;;;;;;;15.80;7.20;;;;;;;24.20;54.18;101552.47;5190014;28;19913;-75
2022/06/18 07:24:41;;;;;;;14.60;6.72;;;;;;;24.24;54.64;101552.31;5189601;28;20038;-75
2022/06/18 07:27:13;;;;;;;16.73;6.77;;;;;;;24.37;55.98;101554.13;5190129;28;20026;-75
2022/06/18 07:29:44;;;;;;;20.10;7.70;;;;;;;24.47;55.05;101549.16;5190208;28;20030;-74
2022/06/18 07:32:17;;;;;;;16.13;7.93;;;;;;;24.47;54.86;101540.28;5185562;28;20856;-74
2022/06/18 07:34:49;;;;;;;14.18;7.20;;;;;;;24.53;54.41;101531.91;5188817;28;20068;-74
2022/06/18 07:37:21;;;;;;;17.00;8.20;;;;;;;24.70;55.42;101542.47;5189411;28;20113;-73
2022/06/18 07:39:52;;;;;;;14.75;7.05;;;;;;;24.89;55.32;101541.31;5188213;28;20105;-74
2022/06/18 07:42:24;;;;;;;16.77;7.40;;;;;;;24.89;52.53;101536.00;5190031;28;20026;-76
2022/06/18 07:44:55;;;;;;;13.40;6.70;;;;;;;25.01;53.56;101539.72;5189438;28;20034;-75
2022/06/18 07:47:27;;;;;;;15.50;7.07;;;;;;;25.00;52.66;101536.19;5188729;28;20538;-73
2022/06/18 07:49:58;;;;;;;12.60;7.00;;;;;;;25.17;52.15;101537.81;5189947;28;20499;-75
2022/06/18 07:52:29;;;;;;;13.10;6.43;;;;;;;25.24;52.70;101539.13;5189821;28;20053;-74
2022/06/18 07:55:00;;;;;;;17.10;6.70;;;;;;;25.16;52.92;101540.56;5188506;28;20069;-76
2022/06/18 07:57:32;;;;;;;15.83;6.37;;;;;;;25.33;51.02;101543.09;5189665;28;20088;-75
2022/06/18 08:00:04;;;;;;;16.23;7.00;;;;;;;25.44;51.12;101540.59;5257087;28;20538;-75
2022/06/18 08:02:39;;;;;;;12.90;5.75;;;;;;;25.59;52.35;101532.56;5188928;28;20049;-74
2022/06/18 08:05:12;;;;;;;16.83;6.90;;;;;;;25.65;50.86;101533.00;5188525;28;20061;-75
2022/06/18 08:07:43;;;;;;;13.85;5.93;;;;;;;25.68;50.55;101523.97;5189462;28;20083;-75
2022/06/18 08:10:15;;;;;;;16.53;6.73;;;;;;;25.74;50.49;101531.53;5189263;28;20030;-77
2022/06/18 08:12:46;;;;;;;15.47;6.60;;;;;;;25.78;50.74;101522.38;5189445;28;20130;-75
2022/06/18 08:15:18;;;;;;;12.63;6.30;;;;;;;25.84;51.23;101522.00;5189203;28;20038;-73
2022/06/18 08:17:49;;;;;;;11.63;6.15;;;;;;;26.03;49.78;101515.44;5189489;28;20030;-74
2022/06/18 08:20:21;;;;;;;17.27;6.93;;;;;;;25.93;51.01;101512.50;5189285;28;20038;-77
2022/06/18 08:22:55;;;;;;;14.60;6.33;;;;;;;26.15;48.69;101513.78;5189388;28;20041;-75
2022/06/18 08:25:29;;;;;;;14.48;7.85;;;;;;;26.22;49.09;101509.72;5188616;28;20325;-75
2022/06/18 08:28:03;;;;;;;13.40;5.45;;;;;;;26.25;50.31;101512.19;5189053;28;20053;-74
2022/06/18 08:30:34;;;;;;;17.05;6.80;;;;;;;26.38;48.85;101501.53;5189189;28;20153;-75
2022/06/18 08:33:06;;;;;;;14.48;6.13;;;;;;;26.39;48.25;101496.06;5189078;28;20085;-76
2022/06/18 08:35:38;;;;;;;13.98;6.30;;;;;;;26.51;48.78;101499.72;5188553;28;20141;-75
2022/06/18 08:38:10;;;;;;;17.65;6.10;;;;;;;26.54;49.21;101488.81;5189159;28;20033;-74
2022/06/18 08:41:06;;;;;;;15.45;6.28;;;;;;;26.91;48.50;101496.97;5189038;28;20038;-73
2022/06/18 08:43:54;;;;;;;17.30;6.65;;;;;;;27.09;50.00;101505.50;5189502;28;20141;-78
2022/06/18 08:46:35;;;;;;;12.45;6.35;;;;;;;27.14;47.24;101507.84;5189294;28;20053;-75
2022/06/18 08:49:31;;;;;;;17.10;5.97;;;;;;;27.28;47.65;101498.84;5256345;28;20086;-74
2022/06/18 08:52:39;;;;;;;16.42;6.15;;;;;;;27.50;47.72;101503.53;5189229;28;20037;-77
2022/06/18 08:55:13;;;;;;;14.35;6.07;;;;;;;27.52;46.73;101509.63;5188771;28;20072;-72
2022/06/18 08:57:52;;;;;;;11.65;6.35;;;;;;;27.63;47.27;101506.16;5188428;28;20034;-73
2022/06/18 09:00:29;;;;;;;16.00;6.22;;;;;;;27.68;47.97;101516.50;5189271;28;20121;-75
2022/06/18 09:03:31;;;;;;;13.35;5.50;;;;;;;27.88;47.33;101505.16;5192240;28;20026;-76
2022/06/18 09:06:20;;;;;;;13.32;6.05;;;;;;;27.89;46.75;101509.56;5192421;28;20069;-75
2022/06/18 09:09:01;;;;;;;20.00;5.80;;;;;;;28.13;47.04;101511.41;5171676;28;20334;-74
2022/06/18 09:12:01;;;;;;;18.67;6.78;;;;;;;28.27;45.17;101516.56;5176476;28;20480;-75
2022/06/18 09:14:56;;;;;;;16.83;5.72;;;;;;;28.28;46.05;101520.94;5171524;28;20102;-74
2022/06/18 09:17:37;;;;;;;13.10;5.72;;;;;;;28.41;45.98;101506.59;5178601;28;20014;-74
2022/06/18 09:20:32;;;;;;;16.02;6.55;;;;;;;28.56;44.53;101508.09;5196317;28;20049;-74
2022/06/18 09:23:17;;;;;;;14.70;6.38;;;;;;;28.50;45.55;101505.91;5192445;28;20030;-77
2022/06/18 09:25:51;;;;;;;19.40;6.90;;;;;;;28.47;45.16;101504.31;5191795;28;20023;-75
2022/06/18 09:28:41;;;;;;;15.75;7.28;;;;;;;28.63;45.11;101512.03;5191362;28;20136;-76
2022/06/18 09:31:20;;;;;;;19.40;6.97;;;;;;;28.69;44.83;101508.00;5191862;28;20046;-75
2022/06/18 09:33:59;;;;;;;20.65;7.70;;;;;;;29.03;45.36;101519.63;5191570;28;20026;-73
2022/06/18 09:36:37;;;;;;;14.45;7.25;;;;;;;28.64;44.56;101510.22;5191152;28;20051;-72
2022/06/18 09:39:19;;;;;;;16.38;7.03;;;;;;;28.89;44.95;101515.34;5190977;28;20039;-74
2022/06/18 09:42:13;;;;;;;15.88;7.28;;;;;;;29.11;44.32;101505.59;5191492;28;20035;-75
2022/06/18 09:44:58;;;;;;;15.25;6.60;;;;;;;28.92;46.40;101500.84;5191230;28;20128;-76
2022/06/18 09:47:46;;;;;;;20.42;7.00;;;;;;;29.31;44.83;101490.59;5191684;28;20540;-74
2022/06/18 09:50:20;;;;;;;17.65;6.60;;;;;;;29.54;46.99;101501.28;5191344;28;20038;-75
2022/06/18 09:53:01;;;;;;;18.00;6.43;;;;;;;29.53;43.79;101492.38;5191537;28;20030;-76
2022/06/18 09:55:39;;;;;;;21.77;7.65;;;;;;;29.77;43.86;101488.63;5191262;28;20039;-75
2022/06/18 09:58:23;;;;;;;17.40;6.63;;;;;;;29.61;43.76;101489.06;5191885;28;20109;-77
2022/06/18 10:00:56;;;;;;;15.07;6.50;;;;;;;29.62;41.97;101494.31;5190937;28;20030;-75
2022/06/18 10:09:38;;;;;;;20.58;6.78;;;;;;;30.18;42.13;101487.84;5191507;28;20777;-73
2022/06/18 10:12:28;;;;;;;16.10;6.95;;;;;;;30.08;41.72;101481.56;5188855;28;20400;-75
2022/06/18 10:15:02;;;;;;;16.60;6.47;;;;;;;30.06;42.86;101478.16;5191631;28;20043;-75
2022/06/18 10:17:58;;;;;;;15.27;6.80;;;;;;;30.40;41.26;101480.69;5191746;28;20034;-75
2022/06/18 10:20:57;;;;;;;21.65;6.80;;;;;;;30.57;41.19;101481.06;5188676;28;20095;-76
2022/06/18 10:23:36;;;;;;;17.15;7.22;;;;;;;30.27;40.75;101478.16;5190624;28;20026;-73
2022/06/18 10:26:11;;;;;;;17.77;6.97;;;;;;;30.12;40.80;101474.94;5190374;28;20543;-73
2022/06/18 10:29:05;;;;;;;19.90;6.30;;;;;;;30.47;41.23;101468.38;5190258;28;20034;-73
2022/06/18 10:31:45;;;;;;;15.02;6.30;;;;;;;30.72;42.45;101472.50;5190942;28;20034;-75
2022/06/18 10:34:48;;;;;;;13.32;6.60;;;;;;;31.35;40.40;101475.97;5170984;28;20118;-72
2022/06/18 10:37:57;;;;;;;15.55;6.45;;;;;;;31.54;40.60;101467.09;5172038;28;20465;-74
2022/06/18 10:41:01;;;;;;;16.15;6.88;;;;;;;31.84;38.23;101462.56;5170917;28;20118;-73
2022/06/18 10:43:55;;;;;;;13.98;6.35;;;;;;;31.42;39.14;101463.66;5182062;28;20042;-75
2022/06/18 10:46:28;;;;;;;17.27;6.68;;;;;;;31.25;38.83;101454.41;5191312;28;20101;-74
2022/06/18 10:49:03;;;;;;;12.63;5.47;;;;;;;31.19;39.91;101461.19;5191947;28;20031;-77
2022/06/18 10:51:48;;;;;;;19.70;6.97;;;;;;;31.91;38.81;101453.78;5191572;28;20034;-74
2022/06/18 10:54:33;;;;;;;18.45;6.80;;;;;;;31.85;39.65;101458.88;5190355;28;20133;-74
2022/06/18 10:57:05;;;;;;;15.07;6.45;;;;;;;32.71;37.57;101440.81;5190656;28;20038;-75
2022/06/18 10:59:40;;;;;;;16.38;6.80;;;;;;;32.42;36.32;101440.91;5190852;28;20046;-74
2022/06/18 11:02:20;;;;;;;16.33;6.05;;;;;;;32.80;36.80;101441.78;5191283;28;20042;-78
2022/06/18 11:04:57;;;;;;;15.23;6.97;;;;;;;32.98;38.15;101438.28;5190430;28;20453;-79
2022/06/18 11:07:33;;;;;;;21.92;6.40;;;;;;;33.34;35.94;101433.81;5190791;28;20185;-75
2022/06/18 11:10:07;;;;;;;19.33;7.03;;;;;;;33.21;34.34;101434.19;5174894;28;20023;-75
2022/06/18 11:12:39;;;;;;;12.73;6.07;;;;;;;33.43;35.35;101424.78;5190164;28;20065;-76
2022/06/18 11:15:36;;;;;;;13.73;7.20;;;;;;;34.04;36.70;101421.44;5190331;28;20038;-76
2022/06/18 11:18:20;;;;;;;14.98;6.25;;;;;;;34.56;34.25;101412.47;5191184;28;20069;-75
2022/06/18 11:20:58;;;;;;;14.55;5.97;;;;;;;35.01;32.65;101414.84;5190151;28;20030;-76
2022/06/18 11:23:34;;;;;;;16.88;6.20;;;;;;;34.85;31.68;101409.38;5257290;28;20081;-74
2022/06/18 11:26:16;;;;;;;13.60;6.47;;;;;;;35.28;31.64;101404.78;5190322;28;20069;-76
2022/06/18 11:28:50;;;;;;;9.75;5.60;;;;;;;35.14;31.95;101402.69;5190505;28;20030;-76
2022/06/18 11:31:31;;;;;;;20.95;6.13;;;;;;;35.57;34.95;101398.84;5190759;28;20130;-78
2022/06/18 11:34:16;;;;;;;13.95;5.65;;;;;;;35.75;32.43;101392.44;5190504;28;20038;-78
2022/06/18 11:36:56;;;;;;;17.15;5.72;;;;;;;36.11;30.60;101386.59;5189567;28;20066;-79
2022/06/18 11:39:35;;;;;;;17.58;5.70;;;;;;;36.99;29.75;101382.88;5190346;28;20551;-77
2022/06/18 11:42:17;;;;;;;16.08;7.00;;;;;;;36.87;28.64;101381.59;5190027;28;20033;-73
2022/06/18 11:44:52;;;;;;;16.33;6.55;;;;;;;36.00;28.78;101374.25;5190009;28;20387;-76
2022/06/18 11:47:29;;;;;;;19.08;6.70;;;;;;;36.03;29.32;101375.78;5189742;28;20031;-74
2022/06/18 11:50:08;;;;;;;18.17;6.75;;;;;;;36.24;30.32;101367.09;5190039;28;20471;-77
2022/06/18 11:52:45;;;;;;;12.48;5.95;;;;;;;36.96;29.77;101377.81;5189787;28;20034;-75
2022/06/18 11:55:29;;;;;;;19.23;6.78;;;;;;;36.25;30.33;101364.22;5189393;28;20034;-76
2022/06/18 11:58:09;;;;;;;16.75;6.22;;;;;;;36.78;29.89;101366.38;5189406;28;20030;-75
2022/06/18 12:01:08;;;;;;;17.50;5.60;;;;;;;36.80;30.05;101365.16;5190120;28;20103;-74
2022/06/18 12:03:49;;;;;;;21.33;6.78;;;;;;;36.87;30.51;101365.28;5192699;28;20400;-74
2022/06/18 12:06:53;;;;;;;19.98;6.80;;;;;;;37.86;29.33;101364.56;5189720;28;20046;-76
2022/06/18 12:09:27;;;;;;;21.42;7.55;;;;;;;36.88;29.12;101369.72;5189323;28;20065;-75
2022/06/18 12:12:10;;;;;;;15.25;6.78;;;;;;;37.60;30.16;101360.38;5189467;28;20022;-74
2022/06/18 12:14:52;;;;;;;24.05;6.10;;;;;;;37.84;29.76;101353.00;5189767;28;20046;-73
2022/06/18 12:17:43;;;;;;;;;;;;;;;39.55;28.42;101359.06;5189913;28;20431;-74
2022/06/18 12:20:41;;;;;;;16.60;6.18;;;;;;;38.44;28.87;101356.59;5186944;28;20358;-77
2022/06/18 12:23:18;;;;;;;19.15;7.05;;;;;;;37.96;29.07;101346.06;5182580;28;20117;-74